Time;durP1;ratioP1;P1;durP2;ratioP2;P2;SDS_P1;SDS_P2;PMS_P1;PMS_P2;Temp;Humidity;BMP_temperature;BMP_pressure;BME280_temperature;BME280_humidity;BME280_pressure;Samples;Min_cycle;Max_cycle;Signal;HPM_P1;HPM_P2
2023/07/24 00:01:23;;;;;;;5.78;2.70;;;;;;;13.15;100.00;99716.47;5068570;28;20400;-81
2023/07/24 00:03:49;;;;;;;6.63;2.22;;;;;;;13.12;100.00;99719.47;5052193;28;20041;-81
2023/07/24 00:06:15;;;;;;;3.88;2.95;;;;;;;13.08;100.00;99721.66;5050653;28;20036;-81
2023/07/24 00:08:40;;;;;;;9.68;2.65;;;;;;;13.07;100.00;99721.84;5036838;28;20426;-81
2023/07/24 00:11:09;;;;;;;4.68;2.30;;;;;;;13.09;100.00;99720.63;5044495;28;20083;-80
2023/07/24 00:13:35;;;;;;;7.10;2.58;;;;;;;13.00;100.00;99713.75;5067114;28;20036;-80
2023/07/24 00:16:06;;;;;;;4.15;2.55;;;;;;;13.06;100.00;99721.00;5070965;28;20040;-81
2023/07/24 00:18:32;;;;;;;4.03;2.25;;;;;;;13.00;100.00;99724.38;5065712;28;20099;-80
2023/07/24 00:20:58;;;;;;;5.50;2.60;;;;;;;13.00;100.00;99719.06;5069832;28;20524;-81
2023/07/24 00:23:24;;;;;;;4.45;2.17;;;;;;;12.99;100.00;99728.03;5065466;28;20058;-81
2023/07/24 00:25:49;;;;;;;4.65;2.38;;;;;;;12.99;100.00;99733.34;5047147;28;20033;-80
2023/07/24 00:28:15;;;;;;;7.60;2.80;;;;;;;12.96;100.00;99725.75;5036558;28;20481;-81
2023/07/24 00:30:42;;;;;;;4.47;2.25;;;;;;;12.93;100.00;99737.53;5047088;28;20028;-80
2023/07/24 00:33:08;;;;;;;3.47;2.22;;;;;;;12.92;100.00;99733.22;5049541;28;20074;-81
2023/07/24 00:35:34;;;;;;;5.35;2.67;;;;;;;12.89;100.00;99733.56;5050211;28;20492;-80
2023/07/24 00:38:00;;;;;;;5.43;2.20;;;;;;;12.88;100.00;99730.09;5050257;28;20091;-81
2023/07/24 00:40:26;;;;;;;3.47;2.47;;;;;;;12.88;100.00;99734.59;5055543;28;20210;-81
2023/07/24 00:42:51;;;;;;;5.18;2.05;;;;;;;12.86;100.00;99736.59;5024430;28;20044;-81
2023/07/24 00:45:17;;;;;;;6.03;1.90;;;;;;;12.84;100.00;99736.75;5085842;28;20037;-81
2023/07/24 00:47:44;;;;;;;3.97;2.90;;;;;;;12.82;100.00;99746.72;5039671;28;20507;-81
2023/07/24 00:50:12;;;;;;;6.15;2.50;;;;;;;12.82;100.00;99743.25;5046841;28;20481;-81
2023/07/24 00:52:39;;;;;;;4.78;2.38;;;;;;;12.81;100.00;99749.53;5058002;28;20032;-81
2023/07/24 00:55:06;;;;;;;4.50;2.35;;;;;;;12.78;100.00;99748.06;5065477;28;20039;-81
2023/07/24 00:57:32;;;;;;;6.05;2.50;;;;;;;12.76;100.00;99747.41;5029145;28;20048;-81
2023/07/24 00:59:59;;;;;;;4.35;2.20;;;;;;;12.76;100.00;99744.75;5032754;28;20412;-81
2023/07/24 01:02:25;;;;;;;4.20;2.63;;;;;;;12.72;100.00;99746.13;5032124;28;20476;-81
2023/07/24 01:04:51;;;;;;;2.70;2.22;;;;;;;12.71;100.00;99747.13;5063963;28;20108;-82
2023/07/24 01:07:17;;;;;;;5.60;2.63;;;;;;;12.68;100.00;99744.84;5050851;28;20123;-81
2023/07/24 01:09:43;;;;;;;2.78;2.20;;;;;;;12.64;100.00;99739.88;5033815;28;20031;-82
2023/07/24 01:12:36;;;;;;;6.72;2.38;;;;;;;12.65;100.00;99746.81;5029177;28;20067;-82
2023/07/24 01:15:29;;;;;;;5.10;2.63;;;;;;;12.66;100.00;99745.00;5038452;28;20032;-82
2023/07/24 01:18:00;;;;;;;6.40;2.53;;;;;;;12.62;100.00;99746.34;5045713;28;20040;-81
2023/07/24 01:20:30;;;;;;;7.03;3.00;;;;;;;12.61;100.00;99750.00;5067778;28;20074;-81
2023/07/24 01:23:12;;;;;;;8.75;2.53;;;;;;;12.62;100.00;99749.84;5035518;28;20040;-81
2023/07/24 01:25:59;;;;;;;3.15;2.08;;;;;;;12.64;100.00;99752.31;5060866;28;20035;-81
2023/07/24 01:28:26;;;;;;;10.90;2.45;;;;;;;12.63;100.00;99754.13;5060472;28;20040;-80
2023/07/24 01:30:53;;;;;;;4.13;2.05;;;;;;;12.64;100.00;99749.66;5045068;28;20219;-81
2023/07/24 01:33:20;;;;;;;4.88;2.25;;;;;;;12.67;100.00;99756.44;5024757;28;20154;-82
2023/07/24 01:35:53;;;;;;;3.97;2.30;;;;;;;12.67;100.00;99756.44;5064955;28;20036;-82
2023/07/24 01:38:19;;;;;;;3.30;1.98;;;;;;;12.64;100.00;99758.44;5065697;28;20393;-82
2023/07/24 01:40:45;;;;;;;6.30;2.25;;;;;;;12.66;100.00;99763.56;5038513;28;20456;-81
2023/07/24 01:43:12;;;;;;;3.05;2.08;;;;;;;12.68;100.00;99763.41;5051413;28;20485;-81
2023/07/24 01:45:37;;;;;;;7.75;2.50;;;;;;;12.60;100.00;99753.63;5064197;28;20036;-81
2023/07/24 01:48:04;;;;;;;5.53;2.35;;;;;;;12.62;100.00;99756.94;5049804;28;20032;-83
2023/07/24 01:50:31;;;;;;;13.43;2.40;;;;;;;12.66;100.00;99760.94;5055956;28;20036;-83
2023/07/24 01:52:57;;;;;;;8.38;2.60;;;;;;;12.65;100.00;99760.09;5035898;28;20486;-83
2023/07/24 01:55:23;;;;;;;6.47;2.25;;;;;;;12.66;100.00;99760.94;5043117;28;20035;-83
2023/07/24 01:57:49;;;;;;;4.85;3.08;;;;;;;12.62;100.00;99762.25;5070205;28;20024;-83
2023/07/24 02:00:15;;;;;;;11.18;2.58;;;;;;;12.57;100.00;99762.78;5059820;28;20048;-82
2023/07/24 02:02:41;;;;;;;6.57;2.28;;;;;;;12.52;100.00;99762.47;5087589;28;20488;-83
2023/07/24 02:05:07;;;;;;;10.45;2.28;;;;;;;12.47;100.00;99765.63;5050345;28;20041;-83
2023/07/24 02:07:33;;;;;;;3.90;2.20;;;;;;;12.40;100.00;99767.34;5023395;28;20131;-83
2023/07/24 02:09:59;;;;;;;4.32;1.90;;;;;;;12.35;100.00;99767.88;5049027;28;20115;-83
2023/07/24 02:12:24;;;;;;;8.75;2.50;;;;;;;12.27;100.00;99767.91;5052437;28;20043;-82
2023/07/24 02:14:51;;;;;;;4.05;2.00;;;;;;;12.18;100.00;99761.81;5035509;28;20481;-83
2023/07/24 02:17:18;;;;;;;6.40;1.73;;;;;;;12.16;100.00;99769.09;5067495;28;20123;-83
2023/07/24 02:19:44;;;;;;;9.40;2.78;;;;;;;12.06;100.00;99771.06;5032582;28;20086;-82
2023/07/24 02:22:10;;;;;;;5.63;2.70;;;;;;;12.00;100.00;99768.13;5050115;28;20036;-82
2023/07/24 02:24:36;;;;;;;5.40;2.45;;;;;;;11.98;100.00;99774.59;5034130;28;20139;-83
2023/07/24 02:27:02;;;;;;;6.47;1.98;;;;;;;11.95;100.00;99770.47;5060897;28;20041;-83
2023/07/24 02:29:30;;;;;;;5.55;2.10;;;;;;;11.93;100.00;99772.44;5051743;28;20037;-83
2023/07/24 02:31:58;;;;;;;3.47;2.22;;;;;;;11.92;100.00;99770.81;5052427;28;20392;-83
2023/07/24 02:34:26;;;;;;;7.32;2.08;;;;;;;11.89;100.00;99776.44;5011446;28;20037;-81
2023/07/24 02:36:55;;;;;;;5.88;2.17;;;;;;;11.89;100.00;99779.94;5038672;28;20106;-83
2023/07/24 02:39:21;;;;;;;5.10;2.05;;;;;;;11.86;100.00;99776.78;5030217;28;20156;-81
2023/07/24 02:41:50;;;;;;;4.82;2.08;;;;;;;11.90;100.00;99784.22;5021137;28;20531;-83
2023/07/24 02:44:17;;;;;;;9.00;2.70;;;;;;;11.87;100.00;99784.56;5047345;28;20044;-82
2023/07/24 02:46:42;;;;;;;6.97;2.15;;;;;;;11.87;100.00;99784.56;5024124;28;20032;-83
2023/07/24 02:49:09;;;;;;;10.18;2.10;;;;;;;11.85;100.00;99783.09;5055664;28;20117;-82
2023/07/24 02:51:35;;;;;;;5.18;2.40;;;;;;;11.86;100.00;99790.03;5051835;28;20442;-83
2023/07/24 02:54:00;;;;;;;3.95;2.10;;;;;;;11.82;100.00;99786.06;5033306;28;20028;-84
2023/07/24 02:56:26;;;;;;;6.30;2.67;;;;;;;11.79;100.00;99793.34;5052601;28;20032;-82
2023/07/24 02:58:52;;;;;;;3.78;2.17;;;;;;;11.74;100.00;99790.38;5034889;28;20041;-83
2023/07/24 03:01:18;;;;;;;5.45;2.50;;;;;;;11.73;100.00;99793.19;5068663;28;20072;-83
2023/07/24 03:03:44;;;;;;;4.05;2.45;;;;;;;11.69;100.00;99795.34;5045465;28;20050;-83
2023/07/24 03:06:10;;;;;;;7.22;2.38;;;;;;;11.66;100.00;99801.81;5035161;28;20480;-83
2023/07/24 03:08:36;;;;;;;3.72;1.85;;;;;;;11.64;100.00;99801.13;5051506;28;20029;-83
2023/07/24 03:11:05;;;;;;;3.33;2.10;;;;;;;11.62;100.00;99805.78;5056637;28;20036;-83
2023/07/24 03:13:31;;;;;;;7.85;2.42;;;;;;;11.54;100.00;99811.06;5046494;28;20128;-83
2023/07/24 03:15:58;;;;;;;9.02;2.45;;;;;;;11.50;100.00;99815.88;5041444;28;20119;-82
2023/07/24 03:18:24;;;;;;;4.85;2.38;;;;;;;11.50;100.00;99801.81;5022279;28;20028;-82
2023/07/24 03:20:51;;;;;;;9.45;3.83;;;;;;;11.49;100.00;99813.38;5061418;28;20107;-84
2023/07/24 03:23:17;;;;;;;7.47;2.53;;;;;;;11.48;100.00;99817.84;5049353;28;20452;-83
2023/07/24 03:25:43;;;;;;;4.60;2.50;;;;;;;11.48;100.00;99817.84;5052717;28;20029;-83
2023/07/24 03:28:09;;;;;;;4.82;2.65;;;;;;;11.49;100.00;99808.09;5033953;28;20033;-84
2023/07/24 03:30:35;;;;;;;12.40;2.75;;;;;;;11.51;100.00;99822.00;5037935;28;20473;-83
2023/07/24 03:33:01;;;;;;;3.90;2.58;;;;;;;11.54;100.00;99825.16;5047120;28;20036;-83
2023/07/24 03:35:30;;;;;;;3.28;2.50;;;;;;;11.57;100.00;99828.44;5039030;28;20060;-82
2023/07/24 03:37:56;;;;;;;7.57;2.97;;;;;;;11.59;100.00;99829.09;5034692;28;20067;-82
2023/07/24 03:40:21;;;;;;;4.65;2.50;;;;;;;11.61;100.00;99837.72;5053136;28;20040;-83
2023/07/24 03:42:47;;;;;;;8.23;2.45;;;;;;;11.63;100.00;99833.91;5054454;28;20084;-83
2023/07/24 03:45:13;;;;;;;3.83;2.50;;;;;;;11.67;100.00;99839.69;5050853;28;20025;-83
2023/07/24 03:47:39;;;;;;;2.75;2.38;;;;;;;11.73;100.00;99846.13;5064787;28;20345;-82
2023/07/24 03:50:05;;;;;;;3.75;2.35;;;;;;;11.76;100.00;99837.84;5053081;28;20036;-82
2023/07/24 03:52:31;;;;;;;6.10;2.60;;;;;;;11.76;100.00;99838.69;5060127;28;20476;-83
2023/07/24 03:54:56;;;;;;;6.07;2.58;;;;;;;11.81;100.00;99838.19;5020516;28;20110;-83
2023/07/24 03:57:22;;;;;;;6.25;2.35;;;;;;;11.85;100.00;99842.16;5030526;28;20123;-82
2023/07/24 03:59:48;;;;;;;5.72;2.55;;;;;;;11.88;100.00;99836.50;5054735;28;20032;-81
2023/07/24 04:02:14;;;;;;;4.65;2.58;;;;;;;11.94;100.00;99840.31;5062214;28;20772;-83
2023/07/24 04:04:39;;;;;;;4.45;2.42;;;;;;;11.95;100.00;99827.88;5088345;28;20124;-83
2023/07/24 04:07:05;;;;;;;6.28;2.85;;;;;;;11.99;100.00;99835.31;5053683;28;20082;-82
2023/07/24 04:09:31;;;;;;;6.63;2.33;;;;;;;12.06;100.00;99837.28;5037920;28;20392;-83
2023/07/24 04:11:57;;;;;;;7.35;2.53;;;;;;;12.06;100.00;99837.28;5034753;28;20118;-83
2023/07/24 04:14:23;;;;;;;7.10;2.50;;;;;;;12.09;100.00;99831.72;5045588;28;20028;-83
2023/07/24 04:16:49;;;;;;;3.67;2.50;;;;;;;12.13;100.00;99848.91;5031965;28;20041;-83
2023/07/24 04:19:15;;;;;;;6.32;2.67;;;;;;;12.15;100.00;99845.09;5069719;28;20091;-81
2023/07/24 04:21:41;;;;;;;5.80;2.53;;;;;;;12.17;100.00;99844.94;5037869;28;20044;-82
2023/07/24 04:24:07;;;;;;;2.97;2.20;;;;;;;12.22;100.00;99847.06;5047231;28;20040;-82
2023/07/24 04:26:33;;;;;;;12.77;2.75;;;;;;;12.23;100.00;99852.19;5054941;28;20048;-83
2023/07/24 04:28:58;;;;;;;5.53;2.58;;;;;;;12.26;100.00;99846.56;5053758;28;20047;-83
2023/07/24 04:31:24;;;;;;;5.53;2.78;;;;;;;12.29;100.00;99848.06;5044271;28;20044;-82
2023/07/24 04:33:50;;;;;;;7.90;2.90;;;;;;;12.32;100.00;99858.31;5053034;28;20028;-82
2023/07/24 04:36:16;;;;;;;9.57;2.63;;;;;;;12.34;100.00;99850.19;5054355;28;20040;-81
2023/07/24 04:38:41;;;;;;;9.45;2.13;;;;;;;12.38;100.00;99856.78;5043278;28;20037;-77
2023/07/24 04:41:07;;;;;;;7.40;2.20;;;;;;;12.40;100.00;99855.63;5059211;28;20048;-82
2023/07/24 04:43:34;;;;;;;4.45;2.70;;;;;;;12.44;100.00;99861.41;5041481;28;20039;-82
2023/07/24 04:45:59;;;;;;;4.15;2.33;;;;;;;12.50;100.00;99868.66;5032854;28;20040;-82
2023/07/24 04:48:25;;;;;;;4.93;2.35;;;;;;;12.58;100.00;99862.50;5015359;28;20522;-81
2023/07/24 04:50:57;;;;;;;6.18;3.00;;;;;;;12.66;100.00;99880.22;5066606;28;20040;-81
2023/07/24 04:53:23;;;;;;;4.65;2.30;;;;;;;12.69;100.00;99881.72;5066897;28;20056;-81
2023/07/24 04:55:49;;;;;;;15.52;3.88;;;;;;;12.76;100.00;99880.00;5068625;28;20039;-82
2023/07/24 04:58:15;;;;;;;4.22;2.42;;;;;;;12.83;100.00;99885.44;5022910;28;20072;-83
2023/07/24 05:00:41;;;;;;;7.40;2.30;;;;;;;12.79;100.00;99882.31;5038078;28;20048;-82
2023/07/24 05:03:10;;;;;;;4.22;2.22;;;;;;;12.77;100.00;99884.31;5066498;28;20048;-80
2023/07/24 05:05:39;;;;;;;3.53;2.35;;;;;;;12.76;100.00;99888.78;5058219;28;20039;-82
2023/07/24 05:08:05;;;;;;;7.15;2.25;;;;;;;12.69;100.00;99887.00;5070479;28;20039;-80
2023/07/24 05:10:38;;;;;;;8.20;2.40;;;;;;;12.68;100.00;99891.47;5023446;28;20032;-81
2023/07/24 05:13:03;;;;;;;5.00;1.98;;;;;;;12.63;100.00;99899.09;5067699;28;20388;-81
2023/07/24 05:15:29;;;;;;;3.22;2.40;;;;;;;12.60;100.00;99902.09;5068189;28;20035;-81
2023/07/24 05:17:55;;;;;;;8.15;2.60;;;;;;;12.59;100.00;99906.59;5061342;28;20024;-81
2023/07/24 05:20:21;;;;;;;3.42;2.22;;;;;;;12.57;100.00;99899.78;5061620;28;20071;-80
2023/07/24 05:22:47;;;;;;;7.25;2.90;;;;;;;12.55;100.00;99905.28;5051566;28;20039;-81
2023/07/24 05:25:12;;;;;;;7.75;2.42;;;;;;;12.55;100.00;99910.56;5064839;28;20040;-82
2023/07/24 05:27:38;;;;;;;4.13;2.30;;;;;;;12.59;100.00;99919.84;5050708;28;20535;-81
2023/07/24 05:30:06;;;;;;;4.47;2.72;;;;;;;12.62;100.00;99911.56;5034875;28;20429;-81
2023/07/24 05:32:31;;;;;;;7.20;2.33;;;;;;;12.63;100.00;99915.00;5044432;28;20139;-81
2023/07/24 05:34:57;;;;;;;3.25;2.40;;;;;;;12.69;100.00;99914.34;5054203;28;20454;-80
2023/07/24 05:37:22;;;;;;;9.15;2.72;;;;;;;12.74;100.00;99925.25;5031976;28;20033;-81
2023/07/24 05:39:48;;;;;;;9.85;2.90;;;;;;;12.74;100.00;99921.81;5064837;28;20463;-80
2023/07/24 05:42:14;;;;;;;5.05;2.58;;;;;;;12.73;100.00;99910.34;5034808;28;20036;-81
2023/07/24 05:44:40;;;;;;;4.32;2.50;;;;;;;12.78;100.00;99920.44;5049539;28;20041;-81
2023/07/24 05:47:06;;;;;;;7.38;2.70;;;;;;;12.80;100.00;99915.81;5048617;28;20048;-81
2023/07/24 05:49:32;;;;;;;7.10;2.45;;;;;;;12.79;100.00;99919.44;5033963;28;20046;-81
2023/07/24 05:51:58;;;;;;;5.40;2.45;;;;;;;12.80;100.00;99922.94;5046351;28;20029;-84
2023/07/24 05:54:23;;;;;;;3.85;2.63;;;;;;;12.80;100.00;99918.47;5052513;28;20045;-81
2023/07/24 05:56:51;;;;;;;5.65;2.47;;;;;;;12.78;100.00;99918.63;5067833;28;20094;-79
2023/07/24 05:59:17;;;;;;;6.38;2.67;;;;;;;12.74;100.00;99917.31;5065726;28;20119;-83
2023/07/24 06:01:43;;;;;;;4.70;2.42;;;;;;;12.70;100.00;99931.91;5049940;28;20562;-82
2023/07/24 06:04:09;;;;;;;5.47;2.58;;;;;;;12.68;100.00;99930.44;5067805;28;20082;-81
2023/07/24 06:06:36;;;;;;;5.78;2.67;;;;;;;12.68;100.00;99935.75;5023921;28;20047;-82
2023/07/24 06:09:02;;;;;;;7.22;2.38;;;;;;;12.65;100.00;99940.38;5033709;28;20036;-82
2023/07/24 06:11:28;;;;;;;6.32;2.22;;;;;;;12.70;100.00;99944.34;5042420;28;20110;-80
2023/07/24 06:13:54;;;;;;;7.35;3.28;;;;;;;12.70;100.00;99941.69;5057647;28;20482;-81
2023/07/24 06:16:20;;;;;;;5.85;2.95;;;;;;;12.68;100.00;99933.91;5057038;28;20043;-81
2023/07/24 06:18:46;;;;;;;8.15;3.35;;;;;;;12.62;100.00;99935.41;5035434;28;20562;-81
2023/07/24 06:21:12;;;;;;;7.90;2.55;;;;;;;12.62;100.00;99931.94;5049661;28;20048;-79
2023/07/24 06:23:37;;;;;;;5.85;2.85;;;;;;;12.57;100.00;99934.25;5047578;28;20036;-82
2023/07/24 06:26:03;;;;;;;9.93;3.58;;;;;;;12.58;100.00;99935.94;5052564;28;20024;-82
2023/07/24 06:28:29;;;;;;;6.63;2.95;;;;;;;12.60;100.00;99936.56;5013389;28;20032;-82
2023/07/24 06:30:55;;;;;;;10.95;3.67;;;;;;;12.55;100.00;99941.56;5019679;28;20127;-81
2023/07/24 06:33:21;;;;;;;9.10;3.28;;;;;;;12.51;100.00;99939.25;5044395;28;20059;-82
2023/07/24 06:35:50;;;;;;;10.88;3.25;;;;;;;12.53;100.00;99936.44;5058606;28;20515;-82
2023/07/24 06:38:16;;;;;;;6.03;2.83;;;;;;;12.56;100.00;99944.06;5046745;28;20040;-82
2023/07/24 06:40:42;;;;;;;8.82;3.22;;;;;;;12.58;100.00;99952.66;5049964;28;20503;-83
2023/07/24 06:43:08;;;;;;;5.72;3.20;;;;;;;12.58;100.00;99943.88;5068744;28;20035;-81
2023/07/24 06:45:34;;;;;;;8.80;3.70;;;;;;;12.63;100.00;99954.78;5053707;28;20025;-82
2023/07/24 06:48:00;;;;;;;5.13;3.50;;;;;;;12.69;100.00;99958.59;5051869;28;20043;-82
2023/07/24 06:50:26;;;;;;;6.55;2.97;;;;;;;12.75;100.00;99969.34;5029312;28;20028;-82
2023/07/24 06:52:53;;;;;;;5.05;3.17;;;;;;;12.76;100.00;99967.50;5040306;28;20195;-81
2023/07/24 06:55:20;;;;;;;5.38;3.20;;;;;;;12.77;100.00;99967.34;5032311;28;20068;-83
2023/07/24 06:57:45;;;;;;;6.55;2.95;;;;;;;12.77;100.00;99970.00;5033888;28;20047;-82
2023/07/24 07:00:12;;;;;;;9.93;3.22;;;;;;;12.82;100.00;99972.13;5020524;28;20045;-83
2023/07/24 07:02:38;;;;;;;8.25;3.45;;;;;;;12.93;100.00;99968.31;5017705;28;20063;-82
2023/07/24 07:05:05;;;;;;;6.45;2.90;;;;;;;12.98;100.00;99968.59;5039607;28;20030;-83
2023/07/24 07:07:31;;;;;;;6.10;2.65;;;;;;;13.01;100.00;99970.91;5027601;28;20491;-83
2023/07/24 07:09:57;;;;;;;9.05;2.90;;;;;;;13.02;100.00;99974.41;5032808;28;20040;-82
2023/07/24 07:12:23;;;;;;;7.20;3.25;;;;;;;13.11;100.00;99973.34;5015173;28;20497;-81
2023/07/24 07:14:48;;;;;;;7.50;3.17;;;;;;;13.18;100.00;99980.63;5023525;28;20029;-80
2023/07/24 07:17:14;;;;;;;12.05;2.63;;;;;;;13.23;100.00;99978.28;5053877;28;20095;-82
2023/07/24 07:19:40;;;;;;;6.68;2.72;;;;;;;13.24;100.00;99972.81;5019522;28;20100;-82
2023/07/24 07:22:06;;;;;;;9.85;3.25;;;;;;;13.26;100.00;99977.94;5017794;28;20048;-82
2023/07/24 07:24:32;;;;;;;10.60;2.85;;;;;;;13.35;100.00;99981.38;5016062;28;20132;-80
2023/07/24 07:26:57;;;;;;;4.63;2.50;;;;;;;13.48;100.00;99983.47;5024257;28;20091;-82
2023/07/24 07:29:23;;;;;;;7.75;2.67;;;;;;;13.55;100.00;99987.13;5016004;28;20037;-83
2023/07/24 07:31:49;;;;;;;6.75;2.63;;;;;;;13.66;100.00;99991.19;5034153;28;20039;-82
2023/07/24 07:34:15;;;;;;;7.55;2.92;;;;;;;13.87;100.00;99987.06;5026847;28;20124;-83
2023/07/24 07:36:41;;;;;;;8.27;2.60;;;;;;;14.11;100.00;99993.19;5033372;28;20546;-81
2023/07/24 07:39:06;;;;;;;3.65;2.65;;;;;;;14.28;100.00;99988.56;5048112;28;20033;-80
2023/07/24 07:41:32;;;;;;;13.60;4.03;;;;;;;14.41;100.00;99979.97;5048491;28;20033;-82
2023/07/24 07:43:58;;;;;;;8.20;2.45;;;;;;;14.67;100.00;99986.66;5032811;28;20477;-82
2023/07/24 07:46:25;;;;;;;9.50;2.97;;;;;;;14.87;100.00;99991.47;5032205;28;20040;-82
2023/07/24 07:48:51;;;;;;;7.50;2.60;;;;;;;15.05;100.00;99984.97;5041496;28;20036;-82
2023/07/24 08:19:09;;;;;;;5.97;2.92;;;;;;;15.07;100.00;100009.53;5158258;27;20151;-81
2023/07/24 08:21:35;;;;;;;6.13;2.67;;;;;;;15.02;100.00;100011.94;5105812;27;20533;-81
2023/07/24 08:24:02;;;;;;;8.80;3.08;;;;;;;14.89;100.00;100008.09;5124902;27;20038;-81
2023/07/24 08:26:28;;;;;;;11.45;3.00;;;;;;;14.84;100.00;100007.81;5109678;27;20027;-81
2023/07/24 08:28:53;;;;;;;4.35;2.58;;;;;;;14.84;100.00;100015.81;5121267;27;20035;-81
2023/07/24 08:31:19;;;;;;;5.78;2.67;;;;;;;14.86;100.00;100011.94;5111188;27;20027;-81
2023/07/24 08:33:45;;;;;;;4.00;2.60;;;;;;;14.79;100.00;100015.47;5133786;27;20030;-81
2023/07/24 08:36:14;;;;;;;8.15;3.17;;;;;;;14.66;100.00;100011.63;5104234;27;20365;-81
2023/07/24 08:38:40;;;;;;;6.65;2.30;;;;;;;14.68;100.00;100022.91;5118659;27;20035;-81
2023/07/24 08:41:12;;;;;;;11.70;3.08;;;;;;;14.84;100.00;100023.78;5129888;27;20030;-82
2023/07/24 08:43:40;;;;;;;7.80;2.20;;;;;;;14.86;100.00;100019.09;5124494;27;20031;-81
2023/07/24 08:46:07;;;;;;;6.57;2.40;;;;;;;14.86;100.00;100019.91;5139081;27;20050;-81
2023/07/24 08:48:37;;;;;;;8.48;2.20;;;;;;;14.94;100.00;100020.84;5126543;27;20484;-81
2023/07/24 08:51:08;;;;;;;7.35;2.45;;;;;;;14.92;100.00;100015.72;5113258;27;20047;-81
2023/07/24 08:53:36;;;;;;;3.47;2.08;;;;;;;14.91;100.00;100022.03;5127581;27;20110;-81
2023/07/24 08:56:03;;;;;;;11.90;2.70;;;;;;;14.99;100.00;100021.09;5106156;28;20035;-81
2023/07/24 08:58:29;;;;;;;4.68;2.53;;;;;;;15.14;100.00;100029.09;5122013;27;20561;-81
2023/07/24 09:00:59;;;;;;;5.85;2.60;;;;;;;15.28;100.00;100018.59;5103699;27;20039;-80
2023/07/24 09:03:25;;;;;;;7.97;2.83;;;;;;;15.32;100.00;100031.34;5106096;27;20053;-81
2023/07/24 09:05:51;;;;;;;6.72;2.75;;;;;;;15.34;100.00;100023.19;5142222;27;20331;-81
2023/07/24 09:08:31;;;;;;;3.92;1.98;;;;;;;15.34;100.00;100031.16;5127048;27;20031;-81
2023/07/24 09:11:01;;;;;;;4.55;1.63;;;;;;;15.29;100.00;100033.59;5094266;27;20039;-81
2023/07/24 09:13:27;;;;;;;4.15;2.05;;;;;;;15.37;100.00;100031.63;5122747;27;20126;-81
2023/07/24 09:15:54;;;;;;;3.40;2.00;;;;;;;15.48;100.00;100032.19;5089985;27;20038;-81
2023/07/24 09:18:19;;;;;;;5.75;2.03;;;;;;;15.50;100.00;100022.97;5120165;27;20126;-81
2023/07/24 09:20:45;;;;;;;3.03;1.70;;;;;;;15.47;100.00;100030.50;5091167;27;20109;-81
2023/07/24 09:23:12;;;;;;;3.83;1.30;;;;;;;15.44;100.00;100020.22;5131839;27;20496;-81
2023/07/24 09:25:40;;;;;;;11.27;1.75;;;;;;;15.52;100.00;100025.44;5076257;27;20044;-81
2023/07/24 09:28:14;;;;;;;4.93;1.75;;;;;;;15.59;100.00;100030.88;5088958;27;20083;-81
2023/07/24 09:30:43;;;;;;;5.85;1.42;;;;;;;15.61;100.00;100028.81;5106687;27;20040;-81
2023/07/24 09:33:09;;;;;;;6.07;1.83;;;;;;;15.65;100.00;100029.28;5081911;27;20522;-81
2023/07/24 09:35:35;;;;;;;6.43;1.20;;;;;;;15.65;100.00;100034.59;5101193;27;20072;-81
2023/07/24 09:38:09;;;;;;;8.05;1.67;;;;;;;15.66;100.00;100029.09;5093979;27;20451;-81
2023/07/24 09:40:40;;;;;;;5.10;1.38;;;;;;;15.63;100.00;100027.63;5089939;27;20074;-81
2023/07/24 09:43:20;;;;;;;5.38;1.27;;;;;;;15.61;100.00;100023.50;5106947;28;20541;-81
2023/07/24 09:45:48;;;;;;;6.18;1.60;;;;;;;15.61;100.00;100023.50;5087082;27;20035;-81
2023/07/24 09:48:15;;;;;;;6.00;1.58;;;;;;;15.67;100.00;100017.41;5068928;27;20031;-82
2023/07/24 09:50:42;;;;;;;9.05;1.92;;;;;;;15.71;100.00;100021.38;5105585;27;20028;-81
2023/07/24 09:53:30;;;;;;;4.72;1.40;;;;;;;15.77;100.00;100019.78;5090396;27;20092;-81
2023/07/24 09:56:04;;;;;;;9.05;2.33;;;;;;;15.79;100.00;100008.91;5093466;27;20032;-81
2023/07/24 09:58:34;;;;;;;7.07;1.73;;;;;;;15.78;100.00;100025.94;5095620;27;20548;-82
2023/07/24 10:01:02;;;;;;;5.78;1.58;;;;;;;15.70;100.00;100018.88;5119304;27;20038;-81
2023/07/24 10:03:29;;;;;;;6.38;1.80;;;;;;;15.59;100.00;100025.53;5095246;27;20031;-81
2023/07/24 10:05:55;;;;;;;5.13;1.70;;;;;;;15.62;100.00;100025.97;5098670;27;20024;-81
2023/07/24 10:08:21;;;;;;;4.95;1.58;;;;;;;15.67;100.00;100028.06;5087372;27;20110;-81
2023/07/24 10:10:51;;;;;;;4.28;1.38;;;;;;;15.75;100.00;100029.81;5119828;27;20092;-81
2023/07/24 10:13:17;;;;;;;4.65;1.42;;;;;;;15.88;100.00;100021.94;5083361;27;20475;-81
2023/07/24 10:15:46;;;;;;;4.60;1.52;;;;;;;15.88;100.00;100029.94;5107159;27;20588;-82
2023/07/24 10:18:12;;;;;;;9.15;1.58;;;;;;;15.92;100.00;100024.22;5115080;27;20053;-81
2023/07/24 10:20:41;;;;;;;4.05;1.08;;;;;;;15.95;100.00;100024.69;5093349;27;20028;-81
2023/07/24 10:23:15;;;;;;;8.88;2.08;;;;;;;16.06;100.00;100019.88;5120744;27;20091;-81
2023/07/24 10:25:44;;;;;;;5.75;1.42;;;;;;;16.19;100.00;100022.66;5106919;27;20079;-81
2023/07/24 10:28:12;;;;;;;3.50;1.10;;;;;;;16.29;100.00;100022.34;5102791;27;20396;-81
2023/07/24 10:30:39;;;;;;;6.85;1.48;;;;;;;16.36;100.00;100020.53;5117213;27;20035;-80
2023/07/24 10:33:07;;;;;;;5.57;1.30;;;;;;;16.41;100.00;100029.78;5102773;28;20032;-82
2023/07/24 10:35:44;;;;;;;7.35;1.92;;;;;;;16.49;100.00;100027.81;5044814;27;20030;-81
2023/07/24 10:38:11;;;;;;;5.07;1.25;;;;;;;16.51;100.00;100032.97;5076305;28;20393;-82
2023/07/24 10:40:37;;;;;;;5.35;1.30;;;;;;;16.48;100.00;100030.69;5106568;28;20023;-81
2023/07/24 10:43:13;;;;;;;7.65;1.30;;;;;;;16.51;100.00;100040.97;5086097;27;20061;-82
2023/07/24 10:45:48;;;;;;;7.85;1.67;;;;;;;16.49;100.00;100032.31;5093120;27;20440;-81
2023/07/24 10:48:16;;;;;;;9.27;2.07;;;;;;;16.57;100.00;100031.34;5108029;27;20088;-81
2023/07/24 10:50:44;;;;;;;7.88;1.15;;;;;;;16.68;100.00;100029.97;5117352;27;20028;-82
2023/07/24 10:53:10;;;;;;;3.40;1.30;;;;;;;16.74;100.00;100030.03;5084912;27;20059;-82
2023/07/24 10:55:37;;;;;;;4.13;1.15;;;;;;;16.74;100.00;100024.69;5087055;28;20035;-81
2023/07/24 10:58:02;;;;;;;5.63;1.27;;;;;;;16.85;100.00;100033.19;5095178;27;20028;-81
2023/07/24 11:00:28;;;;;;;3.45;1.38;;;;;;;16.75;100.00;100030.88;5094946;27;20099;-81
2023/07/24 11:02:55;;;;;;;3.70;1.35;;;;;;;16.67;100.00;100034.53;5103589;27;20033;-79
2023/07/24 11:05:24;;;;;;;4.70;1.20;;;;;;;16.67;100.00;100044.34;5077314;27;20034;-80
2023/07/24 11:07:50;;;;;;;4.10;1.15;;;;;;;16.61;100.00;100041.44;5091394;27;20028;-81
2023/07/24 11:10:20;;;;;;;4.72;1.35;;;;;;;16.58;100.00;100041.84;5127124;27;20031;-81
2023/07/24 11:12:46;;;;;;;5.60;1.65;;;;;;;16.37;100.00;100042.72;5118302;27;20113;-81
2023/07/24 11:15:13;;;;;;;2.83;1.20;;;;;;;16.33;100.00;100050.25;5112684;28;20023;-81
2023/07/24 11:17:41;;;;;;;2.55;1.30;;;;;;;16.25;100.00;100047.72;5121230;27;20069;-81
2023/07/24 11:20:14;;;;;;;6.05;1.52;;;;;;;16.26;100.00;100045.91;5094822;27;20042;-81
2023/07/24 11:22:42;;;;;;;6.68;2.00;;;;;;;16.28;100.00;100042.00;5091420;27;20035;-81
2023/07/24 11:25:09;;;;;;;4.22;1.48;;;;;;;16.35;100.00;100048.25;5107205;27;20089;-81
2023/07/24 11:27:41;;;;;;;5.60;1.40;;;;;;;16.47;100.00;100048.53;5107237;27;20030;-81
2023/07/24 11:30:09;;;;;;;3.33;1.48;;;;;;;16.49;100.00;100062.50;5106173;27;20027;-81
2023/07/24 11:32:35;;;;;;;5.50;1.80;;;;;;;16.52;100.00;100055.94;5090902;27;20193;-81
2023/07/24 11:35:01;;;;;;;7.40;1.67;;;;;;;16.55;100.00;100052.06;5104415;27;20110;-82
2023/07/24 11:37:27;;;;;;;9.48;1.75;;;;;;;16.70;100.00;100054.66;5069849;28;20036;-81
2023/07/24 11:40:04;;;;;;;6.75;1.75;;;;;;;16.89;100.00;100058.47;5105413;28;20035;-82
2023/07/24 11:42:30;;;;;;;7.97;1.58;;;;;;;16.83;100.00;100062.72;5096175;27;20027;-80
2023/07/24 11:45:01;;;;;;;5.57;1.70;;;;;;;16.82;100.00;100062.91;5113133;27;20118;-80
2023/07/24 11:47:27;;;;;;;8.40;1.60;;;;;;;16.71;100.00;100061.63;5084794;28;20028;-81
2023/07/24 11:50:00;;;;;;;9.48;2.05;;;;;;;16.70;100.00;100065.31;5087477;27;20474;-81